Time;durP1;ratioP1;P1;durP2;ratioP2;P2;SDS_P1;SDS_P2;PMS_P1;PMS_P2;Temp;Humidity;BMP_temperature;BMP_pressure;BME280_temperature;BME280_humidity;BME280_pressure;Samples;Min_cycle;Max_cycle;Signal;HPM_P1;HPM_P2
2021/11/02 00:01:39;;;;;;;0.50;0.50;;;;;;;;;;4993885;28;20210;-66
2021/11/02 00:04:06;;;;;;;0.40;0.40;;;;;;;;;;4994008;28;20413;-66
2021/11/02 00:06:33;;;;;;;0.40;0.40;;;;;;;;;;4993945;28;20258;-66
2021/11/02 00:08:59;;;;;;;0.40;0.40;;;;;;;;;;4993843;28;20732;-66
2021/11/02 00:11:26;;;;;;;0.50;0.50;;;;;;;;;;4993590;28;20201;-66
2021/11/02 00:13:53;;;;;;;0.40;0.40;;;;;;;;;;4993896;28;20409;-65
2021/11/02 00:16:21;;;;;;;0.40;0.40;;;;;;;;;;4993789;28;20171;-66
2021/11/02 00:18:57;;;;;;;0.40;0.40;;;;;;;;;;4993590;28;20218;-66
2021/11/02 00:21:23;;;;;;;0.40;0.40;;;;;;;;;;4993677;28;20174;-66
2021/11/02 00:23:57;;;;;;;0.40;0.40;;;;;;;;;;4993803;28;20178;-65
2021/11/02 00:26:23;;;;;;;0.40;0.40;;;;;;;;;;4994005;28;20178;-66
2021/11/02 00:28:49;;;;;;;0.40;0.40;;;;;;;;;;4993728;28;20205;-65
2021/11/02 00:31:15;;;;;;;0.40;0.40;;;;;;;;;;4994001;28;20198;-63
2021/11/02 00:33:41;;;;;;;0.40;0.40;;;;;;;;;;4993374;28;20179;-66
2021/11/02 00:36:07;;;;;;;0.40;0.40;;;;;;;;;;4993693;28;20184;-64
2021/11/02 00:38:33;;;;;;;0.50;0.50;;;;;;;;;;4993371;28;20451;-64
2021/11/02 00:40:59;;;;;;;0.40;0.40;;;;;;;;;;4992991;28;20416;-64
2021/11/02 00:43:26;;;;;;;0.40;0.40;;;;;;;;;;4993307;28;20189;-64
2021/11/02 00:45:52;;;;;;;0.40;0.40;;;;;;;;;;4991986;28;20225;-64
2021/11/02 00:48:28;;;;;;;0.40;0.40;;;;;;;;;;4993015;28;20669;-64
2021/11/02 00:50:54;;;;;;;0.50;0.50;;;;;;;;;;4992968;28;20217;-64
2021/11/02 00:53:20;;;;;;;0.40;0.40;;;;;;;;;;4993186;28;20174;-64
2021/11/02 00:55:46;;;;;;;0.40;0.40;;;;;;;;;;4993006;28;20179;-64
2021/11/02 00:58:13;;;;;;;0.50;0.50;;;;;;;;;;4992852;28;20257;-64
2021/11/02 01:00:40;;;;;;;0.40;0.40;;;;;;;;;;4992882;28;20849;-64
2021/11/02 01:03:06;;;;;;;0.50;0.50;;;;;;;;;;4992953;28;20186;-64
2021/11/02 01:05:33;;;;;;;0.40;0.40;;;;;;;;;;4991657;28;20184;-64
2021/11/02 01:07:59;;;;;;;0.40;0.40;;;;;;;;;;4992719;28;20234;-64
2021/11/02 01:10:25;;;;;;;0.40;0.40;;;;;;;;;;4991971;28;20185;-64
2021/11/02 01:12:52;;;;;;;0.50;0.50;;;;;;;;;;4992735;28;20974;-64
2021/11/02 01:15:22;;;;;;;0.40;0.40;;;;;;;;;;4992539;28;20426;-64
2021/11/02 01:17:48;;;;;;;0.40;0.40;;;;;;;;;;4992493;28;20178;-64
2021/11/02 01:20:15;;;;;;;0.40;0.40;;;;;;;;;;4991157;28;20190;-64
2021/11/02 01:22:42;;;;;;;0.40;0.40;;;;;;;;;;4992650;28;20782;-64
2021/11/02 01:25:08;;;;;;;0.50;0.50;;;;;;;;;;5007580;28;20265;-64
2021/11/02 01:27:35;;;;;;;0.40;0.40;;;;;;;;;;4992494;28;20257;-64
2021/11/02 01:30:01;;;;;;;0.40;0.40;;;;;;;;;;4992742;28;20594;-64
2021/11/02 01:32:27;;;;;;;0.40;0.40;;;;;;;;;;4992673;28;20696;-64
2021/11/02 01:34:53;;;;;;;0.40;0.40;;;;;;;;;;4992610;28;20166;-64
2021/11/02 01:37:19;;;;;;;0.40;0.40;;;;;;;;;;4992448;28;20486;-65
2021/11/02 01:39:45;;;;;;;0.40;0.40;;;;;;;;;;4992396;28;20426;-65
2021/11/02 01:42:11;;;;;;;0.40;0.40;;;;;;;;;;4992223;28;20681;-64
2021/11/02 01:44:37;;;;;;;0.50;0.50;;;;;;;;;;4992376;28;20279;-64
2021/11/02 01:47:04;;;;;;;0.40;0.40;;;;;;;;;;4992274;28;20405;-64
2021/11/02 01:49:31;;;;;;;0.40;0.40;;;;;;;;;;4992520;28;20205;-64
2021/11/02 01:51:56;;;;;;;0.40;0.40;;;;;;;;;;4992351;28;20229;-65
2021/11/02 01:54:22;;;;;;;0.40;0.40;;;;;;;;;;4992196;28;20610;-64
2021/11/02 01:56:49;;;;;;;0.50;0.50;;;;;;;;;;4992093;28;20751;-65
2021/11/02 01:59:16;;;;;;;0.40;0.40;;;;;;;;;;4992336;28;20845;-64
2021/11/02 02:01:51;;;;;;;0.40;0.40;;;;;;;;;;4991902;28;20174;-64
2021/11/02 02:04:36;;;;;;;0.40;0.40;;;;;;;;;;4990945;28;20177;-64
2021/11/02 02:07:08;;;;;;;0.50;0.50;;;;;;;;;;4992078;28;20289;-64
2021/11/02 02:09:53;;;;;;;0.40;0.40;;;;;;;;;;4991993;28;20210;-64
2021/11/02 02:12:38;;;;;;;0.40;0.40;;;;;;;;;;4991916;28;20241;-65
2021/11/02 02:15:16;;;;;;;0.50;0.50;;;;;;;;;;4992240;28;20587;-64
2021/11/02 02:17:52;;;;;;;0.50;0.50;;;;;;;;;;4991855;28;20209;-64
2021/11/02 02:20:33;;;;;;;0.40;0.40;;;;;;;;;;4991903;28;20173;-64
2021/11/02 02:23:17;;;;;;;0.50;0.50;;;;;;;;;;4995893;28;20264;-64
2021/11/02 02:25:46;;;;;;;0.45;0.45;;;;;;;;;;4995917;28;20178;-64
2021/11/02 02:28:19;;;;;;;0.40;0.40;;;;;;;;;;4995662;28;20222;-64
2021/11/02 02:30:46;;;;;;;0.40;0.40;;;;;;;;;;4995861;28;20731;-64
2021/11/02 02:33:13;;;;;;;0.40;0.40;;;;;;;;;;4995697;28;20233;-64
2021/11/02 02:35:40;;;;;;;0.40;0.40;;;;;;;;;;4995680;28;20175;-64
2021/11/02 02:38:06;;;;;;;0.40;0.40;;;;;;;;;;4995533;28;20265;-65
2021/11/02 02:40:32;;;;;;;0.40;0.40;;;;;;;;;;4995523;28;20175;-66
2021/11/02 02:42:59;;;;;;;0.40;0.40;;;;;;;;;;4995583;28;20184;-65
2021/11/02 02:45:26;;;;;;;0.50;0.50;;;;;;;;;;4995611;28;20405;-64
2021/11/02 02:47:53;;;;;;;0.40;0.40;;;;;;;;;;4994176;28;20240;-65
2021/11/02 02:50:20;;;;;;;0.40;0.40;;;;;;;;;;4995364;28;20225;-64
2021/11/02 02:52:46;;;;;;;0.40;0.40;;;;;;;;;;4995371;28;20203;-65
2021/11/02 02:55:15;;;;;;;0.40;0.40;;;;;;;;;;4995325;28;20181;-64
2021/11/02 02:57:42;;;;;;;0.40;0.40;;;;;;;;;;4994848;28;20221;-64
2021/11/02 03:00:10;;;;;;;0.40;0.40;;;;;;;;;;4994997;28;20630;-64
2021/11/02 03:02:36;;;;;;;0.40;0.40;;;;;;;;;;4995188;28;20181;-64
2021/11/02 03:05:04;;;;;;;0.40;0.40;;;;;;;;;;4995279;28;20589;-64
2021/11/02 03:07:30;;;;;;;0.40;0.40;;;;;;;;;;4993862;28;20239;-65
2021/11/02 03:09:56;;;;;;;0.40;0.40;;;;;;;;;;4995002;28;20224;-65
2021/11/02 03:12:27;;;;;;;0.50;0.50;;;;;;;;;;4994830;28;20206;-65
2021/11/02 03:15:11;;;;;;;0.50;0.50;;;;;;;;;;4994954;28;20178;-66
2021/11/02 03:55:32;;;;;;;0.40;0.40;;;;;;;;;;5013826;28;20191;-66
2021/11/02 03:58:04;;;;;;;0.40;0.40;;;;;;;;;;5013585;28;20162;-65
2021/11/02 04:00:47;;;;;;;0.50;0.50;;;;;;;;;;4995833;28;20172;-64
2021/11/02 04:27:34;;;;;;;0.40;0.40;;;;;;;;;;5013398;28;20174;-64
2021/11/02 04:44:05;;;;;;;0.40;0.40;;;;;;;;;;5012862;28;20542;-66
2021/11/02 05:49:17;;;;;;;0.40;0.40;;;;;;;;;;5030735;28;20211;-65
2021/11/02 05:56:57;;;;;;;0.40;0.40;;;;;;;;;;5035155;28;20248;-66
2021/11/02 06:08:07;;;;;;;0.40;0.40;;;;;;;;;;5037301;28;20185;-64
2021/11/02 06:29:26;;;;;;;0.40;0.40;;;;;;;;;;5038116;28;20245;-67
2021/11/02 06:31:55;;;;;;;0.40;0.40;;;;;;;;;;5037213;28;20242;-67
2021/11/02 06:34:43;;;;;;;0.40;0.40;;;;;;;;;;5037195;28;20575;-66
2021/11/02 06:37:28;;;;;;;0.40;0.40;;;;;;;;;;5036018;28;20264;-66
2021/11/02 07:16:00;;;;;;;0.50;0.50;;;;;;;;;;5034369;28;20254;-66
2021/11/02 07:18:29;;;;;;;0.50;0.50;;;;;;;;;;5034052;28;20204;-66
2021/11/02 07:21:06;;;;;;;0.40;0.40;;;;;;;;;;5034151;28;20179;-66
2021/11/02 07:23:38;;;;;;;0.40;0.40;;;;;;;;;;5034264;28;20597;-66
2021/11/02 08:46:50;;;;;;;0.40;0.40;;;;;;;;;;5012893;28;20184;-66
2021/11/02 08:49:16;;;;;;;0.40;0.40;;;;;;;;;;5012626;28;20700;-65
2021/11/02 08:51:42;;;;;;;0.40;0.40;;;;;;;;;;5012257;28;20217;-66
2021/11/02 08:54:08;;;;;;;0.40;0.40;;;;;;;;;;4994688;28;20182;-66
2021/11/02 08:56:35;;;;;;;0.40;0.40;;;;;;;;;;5012496;28;20409;-66
2021/11/02 08:59:01;;;;;;;0.50;0.50;;;;;;;;;;5008668;28;20704;-65
2021/11/02 09:01:27;;;;;;;0.37;0.37;;;;;;;;;;5012295;28;20174;-66
2021/11/02 09:03:59;;;;;;;0.40;0.40;;;;;;;;;;5012380;28;20411;-67
2021/11/02 09:06:25;;;;;;;0.40;0.40;;;;;;;;;;5012237;28;20245;-67
2021/11/02 09:08:54;;;;;;;0.40;0.40;;;;;;;;;;4994569;28;20198;-64
2021/11/02 09:11:21;;;;;;;0.40;0.40;;;;;;;;;;5012338;28;20641;-67
2021/11/02 09:13:48;;;;;;;0.40;0.40;;;;;;;;;;5012119;28;20169;-65
2021/11/02 09:16:15;;;;;;;0.40;0.40;;;;;;;;;;5011572;28;20167;-67
2021/11/02 09:18:47;;;;;;;0.40;0.40;;;;;;;;;;5029588;22;20268;-65
2021/11/02 09:21:15;;;;;;;0.40;0.40;;;;;;;;;;5007662;28;20318;-64
2021/11/02 09:23:41;;;;;;;0.40;0.40;;;;;;;;;;5010671;28;20257;-65
2021/11/02 09:26:07;;;;;;;0.40;0.40;;;;;;;;;;5012145;28;20178;-65
2021/11/02 09:28:34;;;;;;;0.40;0.40;;;;;;;;;;5011731;28;20177;-64
2021/11/02 09:31:01;;;;;;;0.40;0.40;;;;;;;;;;5010118;28;20181;-64
2021/11/02 09:33:27;;;;;;;0.40;0.40;;;;;;;;;;5012021;28;20612;-65
2021/11/02 09:35:58;;;;;;;0.40;0.40;;;;;;;;;;5012135;28;20162;-65
2021/11/02 09:38:27;;;;;;;0.40;0.40;;;;;;;;;;5011685;28;20868;-64
2021/11/02 09:41:03;;;;;;;0.40;0.40;;;;;;;;;;5011690;28;20189;-65
2021/11/02 09:43:39;;;;;;;0.40;0.40;;;;;;;;;;5012065;28;20177;-65
2021/11/02 09:46:24;;;;;;;0.40;0.40;;;;;;;;;;5011974;28;20170;-65
2021/11/02 09:48:56;;;;;;;0.40;0.40;;;;;;;;;;5010476;28;20255;-64
2021/11/02 09:51:35;;;;;;;0.40;0.40;;;;;;;;;;5011758;28;20206;-64
2021/11/02 09:54:01;;;;;;;0.40;0.40;;;;;;;;;;5011751;28;20176;-64
2021/11/02 09:56:28;;;;;;;0.50;0.50;;;;;;;;;;5011831;28;20534;-64
2021/11/02 09:59:10;;;;;;;0.40;0.40;;;;;;;;;;5011746;28;20194;-64
2021/11/02 10:01:49;;;;;;;0.40;0.40;;;;;;;;;;5011665;28;20235;-65
2021/11/02 10:04:19;;;;;;;0.40;0.40;;;;;;;;;;5011011;28;20181;-65
2021/11/02 10:06:50;;;;;;;0.40;0.40;;;;;;;;;;5011777;28;20205;-65
2021/11/02 10:09:39;;;;;;;0.40;0.40;;;;;;;;;;5011773;28;20259;-65
2021/11/02 10:12:19;;;;;;;0.40;0.40;;;;;;;;;;5003522;28;20228;-64
2021/11/02 10:15:03;;;;;;;0.40;0.40;;;;;;;;;;5011652;28;20178;-64
2021/11/02 10:17:54;;;;;;;0.38;0.38;;;;;;;;;;5011500;28;20168;-65
2021/11/02 10:20:23;;;;;;;0.40;0.40;;;;;;;;;;5011211;28;20208;-64
2021/11/02 10:22:52;;;;;;;0.40;0.40;;;;;;;;;;5011650;28;20184;-65
2021/11/02 10:25:21;;;;;;;0.50;0.50;;;;;;;;;;5011539;28;20209;-64
2021/11/02 10:27:56;;;;;;;0.40;0.40;;;;;;;;;;5011628;28;20236;-65
2021/11/02 10:30:37;;;;;;;0.40;0.40;;;;;;;;;;5011251;28;20201;-65
2021/11/02 10:33:23;;;;;;;0.40;0.40;;;;;;;;;;5011592;28;20205;-65
2021/11/02 10:36:08;;;;;;;0.40;0.40;;;;;;;;;;5011417;28;20177;-65
2021/11/02 10:38:43;;;;;;;0.40;0.40;;;;;;;;;;5011482;28;20176;-65
2021/11/02 10:41:14;;;;;;;0.40;0.40;;;;;;;;;;5011064;28;20247;-64
2021/11/02 10:43:44;;;;;;;0.40;0.40;;;;;;;;;;5013445;28;20201;-65
2021/11/02 10:46:11;;;;;;;0.50;0.50;;;;;;;;;;5015049;28;20590;-65
2021/11/02 10:48:44;;;;;;;0.40;0.40;;;;;;;;;;5015084;28;20545;-65
2021/11/02 10:51:23;;;;;;;0.40;0.40;;;;;;;;;;5014925;28;20178;-65
2021/11/02 10:54:06;;;;;;;0.40;0.40;;;;;;;;;;5015037;28;20185;-64
2021/11/02 10:56:34;;;;;;;0.40;0.40;;;;;;;;;;5014946;28;20177;-64
2021/11/02 10:59:01;;;;;;;0.40;0.40;;;;;;;;;;5014872;28;20792;-65
2021/11/02 11:01:28;;;;;;;0.40;0.40;;;;;;;;;;5014765;28;20212;-65
2021/11/02 11:03:56;;;;;;;0.40;0.40;;;;;;;;;;5014900;28;20774;-64
2021/11/02 11:06:24;;;;;;;0.40;0.40;;;;;;;;;;5014883;28;20182;-65
2021/11/02 11:08:51;;;;;;;0.40;0.40;;;;;;;;;;5021121;28;20176;-65
2021/11/02 11:11:18;;;;;;;0.40;0.40;;;;;;;;;;5034112;28;20169;-65
2021/11/02 11:13:48;;;;;;;0.40;0.40;;;;;;;;;;5034717;28;20173;-65
2021/11/02 11:16:16;;;;;;;0.40;0.40;;;;;;;;;;5033396;28;20268;-62
2021/11/02 11:19:02;;;;;;;0.40;0.40;;;;;;;;;;5034404;28;20177;-65
2021/11/02 11:21:28;;;;;;;0.40;0.40;;;;;;;;;;5034050;28;20660;-65
2021/11/02 11:24:05;;;;;;;0.40;0.40;;;;;;;;;;5034286;28;20689;-65
2021/11/02 11:26:32;;;;;;;0.40;0.40;;;;;;;;;;5034321;28;20175;-65
2021/11/02 11:28:58;;;;;;;0.45;0.45;;;;;;;;;;5034183;28;20192;-64
2021/11/02 11:31:25;;;;;;;0.40;0.40;;;;;;;;;;5033908;28;20169;-62
2021/11/02 11:33:57;;;;;;;0.40;0.40;;;;;;;;;;5034095;28;20251;-65
2021/11/02 11:36:23;;;;;;;0.40;0.40;;;;;;;;;;5034172;28;20540;-65
2021/11/02 11:38:51;;;;;;;0.40;0.40;;;;;;;;;;5033963;28;20173;-64
2021/11/02 11:41:19;;;;;;;0.40;0.40;;;;;;;;;;5033843;28;20687;-62
2021/11/02 11:43:49;;;;;;;0.40;0.40;;;;;;;;;;5034004;28;20161;-64
2021/11/02 11:46:18;;;;;;;0.40;0.40;;;;;;;;;;5033969;28;20165;-65
2021/11/02 11:48:52;;;;;;;0.40;0.40;;;;;;;;;;5033724;28;20616;-62
2021/11/02 11:51:22;;;;;;;0.40;0.40;;;;;;;;;;5033579;28;20176;-65
2021/11/02 11:53:49;;;;;;;0.40;0.40;;;;;;;;;;5033341;28;20176;-64
2021/11/02 11:56:16;;;;;;;0.40;0.40;;;;;;;;;;5033843;28;20169;-65
2021/11/02 11:58:51;;;;;;;0.40;0.40;;;;;;;;;;5033695;28;20263;-62
2021/11/02 12:01:26;;;;;;;0.40;0.40;;;;;;;;;;5032006;28;20184;-64
2021/11/02 12:03:58;;;;;;;0.40;0.40;;;;;;;;;;5032395;28;20691;-62
2021/11/02 12:06:29;;;;;;;0.40;0.40;;;;;;;;;;5033490;28;20176;-62
2021/11/02 12:08:57;;;;;;;0.40;0.40;;;;;;;;;;5033249;28;20197;-62
2021/11/02 12:11:25;;;;;;;0.40;0.40;;;;;;;;;;5033199;28;20327;-65
2021/11/02 12:13:55;;;;;;;0.40;0.40;;;;;;;;;;5033315;28;20227;-62
2021/11/02 12:16:24;;;;;;;0.40;0.40;;;;;;;;;;5033665;28;20256;-62
2021/11/02 12:18:56;;;;;;;0.40;0.40;;;;;;;;;;5032799;28;20184;-62
2021/11/02 12:21:22;;;;;;;0.40;0.40;;;;;;;;;;5031848;28;20194;-62
2021/11/02 12:23:51;;;;;;;0.40;0.40;;;;;;;;;;5033166;28;20173;-65
2021/11/02 12:26:18;;;;;;;0.40;0.40;;;;;;;;;;5033256;28;20169;-65
2021/11/02 12:28:46;;;;;;;0.40;0.40;;;;;;;;;;5032958;28;20181;-64
2021/11/02 12:31:16;;;;;;;0.40;0.40;;;;;;;;;;5032770;28;20168;-64
2021/11/02 12:33:49;;;;;;;0.50;0.50;;;;;;;;;;5032986;28;20201;-64
2021/11/02 12:36:34;;;;;;;0.40;0.40;;;;;;;;;;5033001;28;20707;-65
2021/11/02 12:39:01;;;;;;;0.40;0.40;;;;;;;;;;5032802;28;20200;-65
2021/11/02 12:41:27;;;;;;;0.40;0.40;;;;;;;;;;5031059;28;20738;-64
2021/11/02 12:44:10;;;;;;;0.40;0.40;;;;;;;;;;5032914;28;20165;-62
2021/11/02 12:46:39;;;;;;;0.40;0.40;;;;;;;;;;5032839;28;20432;-62
2021/11/02 12:49:06;;;;;;;0.40;0.40;;;;;;;;;;5032680;28;20203;-62
2021/11/02 12:51:36;;;;;;;0.40;0.40;;;;;;;;;;5032621;28;20211;-62
2021/11/02 12:54:03;;;;;;;0.40;0.40;;;;;;;;;;5032843;28;20521;-62
2021/11/02 12:56:32;;;;;;;0.40;0.40;;;;;;;;;;5032782;28;20187;-65
2021/11/02 12:59:11;;;;;;;0.40;0.40;;;;;;;;;;5032855;28;20565;-64
2021/11/02 13:01:38;;;;;;;0.40;0.40;;;;;;;;;;5032441;28;20168;-65
2021/11/02 13:04:06;;;;;;;0.40;0.40;;;;;;;;;;5032773;28;20219;-64
2021/11/02 13:06:39;;;;;;;0.40;0.40;;;;;;;;;;5031752;28;20169;-62
2021/11/02 13:09:05;;;;;;;0.40;0.40;;;;;;;;;;5032292;28;20189;-63
2021/11/02 13:11:31;;;;;;;0.40;0.40;;;;;;;;;;5032253;28;20169;-63
2021/11/02 13:13:59;;;;;;;0.50;0.50;;;;;;;;;;5032234;28;20403;-62
2021/11/02 13:16:26;;;;;;;0.30;0.30;;;;;;;;;;5032364;28;20572;-62
2021/11/02 13:18:52;;;;;;;0.40;0.40;;;;;;;;;;5031855;28;20564;-62
2021/11/02 13:21:25;;;;;;;0.40;0.40;;;;;;;;;;5031811;28;20215;-64
2021/11/02 13:23:56;;;;;;;0.40;0.40;;;;;;;;;;5031968;28;20192;-62
2021/11/02 13:26:22;;;;;;;0.40;0.40;;;;;;;;;;5032070;28;20168;-64
2021/11/02 13:28:53;;;;;;;0.40;0.40;;;;;;;;;;5031427;28;20168;-65
2021/11/02 13:31:25;;;;;;;0.40;0.40;;;;;;;;;;5031913;28;20675;-65
2021/11/02 13:33:58;;;;;;;0.40;0.40;;;;;;;;;;5031901;28;20181;-65
2021/11/02 13:36:24;;;;;;;0.40;0.40;;;;;;;;;;5031919;28;20238;-65
2021/11/02 13:38:50;;;;;;;0.40;0.40;;;;;;;;;;5031742;28;20256;-62
2021/11/02 13:41:19;;;;;;;0.40;0.40;;;;;;;;;;5031539;28;20403;-62
2021/11/02 13:43:46;;;;;;;0.40;0.40;;;;;;;;;;5031692;28;20419;-64
2021/11/02 13:46:12;;;;;;;0.40;0.40;;;;;;;;;;5031747;28;20183;-65
2021/11/02 13:48:39;;;;;;;0.40;0.40;;;;;;;;;;5030215;28;20565;-64
2021/11/02 13:51:06;;;;;;;0.40;0.40;;;;;;;;;;5031404;28;20181;-65
2021/11/02 13:53:34;;;;;;;0.40;0.40;;;;;;;;;;5030232;28;20209;-64
2021/11/02 13:56:00;;;;;;;0.40;0.40;;;;;;;;;;5031618;28;20626;-65
2021/11/02 13:58:26;;;;;;;0.40;0.40;;;;;;;;;;5031668;28;20180;-65
2021/11/02 14:00:52;;;;;;;0.40;0.40;;;;;;;;;;5031201;28;20196;-65
2021/11/02 14:03:24;;;;;;;0.40;0.40;;;;;;;;;;5031668;28;21302;-65
2021/11/02 14:05:52;;;;;;;0.40;0.40;;;;;;;;;;5031504;28;20682;-64
2021/11/02 14:08:22;;;;;;;0.30;0.30;;;;;;;;;;5031466;28;20548;-65
2021/11/02 14:11:10;;;;;;;0.40;0.40;;;;;;;;;;5028372;28;20200;-64
2021/11/02 14:13:41;;;;;;;0.40;0.40;;;;;;;;;;5031074;28;20215;-62
2021/11/02 14:16:07;;;;;;;0.40;0.40;;;;;;;;;;5031510;28;20169;-64
2021/11/02 14:18:33;;;;;;;0.30;0.30;;;;;;;;;;5035078;28;20264;-65
2021/11/02 14:21:00;;;;;;;0.40;0.40;;;;;;;;;;5034689;28;20192;-65
2021/11/02 14:23:33;;;;;;;0.40;0.40;;;;;;;;;;5035079;28;20192;-64
2021/11/02 14:26:14;;;;;;;0.40;0.40;;;;;;;;;;5034855;28;20227;-64
2021/11/02 14:28:45;;;;;;;0.40;0.40;;;;;;;;;;5034844;28;20180;-65
2021/11/02 14:31:31;;;;;;;0.40;0.40;;;;;;;;;;5034815;28;20255;-65
2021/11/02 14:33:57;;;;;;;0.40;0.40;;;;;;;;;;5034571;28;20184;-62
2021/11/02 14:36:38;;;;;;;0.40;0.40;;;;;;;;;;5034902;28;20517;-65
2021/11/02 14:39:05;;;;;;;0.40;0.40;;;;;;;;;;5034477;28;20447;-65
2021/11/02 14:41:32;;;;;;;0.40;0.40;;;;;;;;;;5033779;28;20537;-64
2021/11/02 14:44:17;;;;;;;0.40;0.40;;;;;;;;;;5034562;28;20165;-64
2021/11/02 14:46:43;;;;;;;0.40;0.40;;;;;;;;;;5033458;28;20179;-65
2021/11/02 14:49:10;;;;;;;0.40;0.40;;;;;;;;;;5034777;28;20560;-64
2021/11/02 14:51:36;;;;;;;0.40;0.40;;;;;;;;;;5034586;28;20256;-64
2021/11/02 14:54:21;;;;;;;0.40;0.40;;;;;;;;;;5034679;28;20256;-65
2021/11/02 14:56:47;;;;;;;0.40;0.40;;;;;;;;;;5034481;28;20453;-64
2021/11/02 14:59:15;;;;;;;0.40;0.40;;;;;;;;;;5034473;28;20192;-64
2021/11/02 15:01:41;;;;;;;0.40;0.40;;;;;;;;;;5034342;28;20179;-64
2021/11/02 15:04:15;;;;;;;0.30;0.30;;;;;;;;;;5032687;28;20539;-65
2021/11/02 15:06:42;;;;;;;0.40;0.40;;;;;;;;;;5032442;28;20927;-64
2021/11/02 15:09:19;;;;;;;0.40;0.40;;;;;;;;;;5034501;28;20220;-65
2021/11/02 15:11:51;;;;;;;0.40;0.40;;;;;;;;;;5034207;28;20575;-65
2021/11/02 15:14:18;;;;;;;0.40;0.40;;;;;;;;;;5034478;28;20255;-65
2021/11/02 15:16:45;;;;;;;0.40;0.40;;;;;;;;;;5034129;28;20176;-64
2021/11/02 15:19:11;;;;;;;0.40;0.40;;;;;;;;;;5061514;22;20208;-65
2021/11/02 15:21:40;;;;;;;0.40;0.40;;;;;;;;;;5029350;28;20277;-64
2021/11/02 15:24:18;;;;;;;0.40;0.40;;;;;;;;;;5054239;28;20176;-65
2021/11/02 15:26:46;;;;;;;0.40;0.40;;;;;;;;;;5054224;28;20219;-65
2021/11/02 15:29:12;;;;;;;0.40;0.40;;;;;;;;;;5052770;28;20663;-65
2021/11/02 15:31:38;;;;;;;0.40;0.40;;;;;;;;;;5053727;28;20180;-65
2021/11/02 15:34:14;;;;;;;0.40;0.40;;;;;;;;;;5054071;28;20183;-65
2021/11/02 15:36:41;;;;;;;0.40;0.40;;;;;;;;;;5053389;28;20978;-65
2021/11/02 15:39:08;;;;;;;0.40;0.40;;;;;;;;;;5053616;28;20179;-65
2021/11/02 15:41:34;;;;;;;0.40;0.40;;;;;;;;;;5053446;28;20172;-65
2021/11/02 15:44:01;;;;;;;0.40;0.40;;;;;;;;;;5053828;28;20681;-65
2021/11/02 15:46:29;;;;;;;0.30;0.30;;;;;;;;;;5053690;28;20176;-65
2021/11/02 15:48:57;;;;;;;0.40;0.40;;;;;;;;;;5053713;28;20186;-65
2021/11/02 15:51:24;;;;;;;0.40;0.40;;;;;;;;;;5053101;28;20199;-65
2021/11/02 15:53:51;;;;;;;0.40;0.40;;;;;;;;;;5053758;28;20253;-65
2021/11/02 15:56:22;;;;;;;0.40;0.40;;;;;;;;;;5053633;28;20184;-65
2021/11/02 15:58:55;;;;;;;0.40;0.40;;;;;;;;;;5053487;28;20660;-65
2021/11/02 16:01:35;;;;;;;0.40;0.40;;;;;;;;;;5052917;28;20687;-65
2021/11/02 16:04:09;;;;;;;0.40;0.40;;;;;;;;;;5053225;28;20255;-64
2021/11/02 16:06:36;;;;;;;0.40;0.40;;;;;;;;;;5053180;28;20176;-65
2021/11/02 16:09:06;;;;;;;0.40;0.40;;;;;;;;;;5053027;28;20179;-65
2021/11/02 16:11:32;;;;;;;0.40;0.40;;;;;;;;;;5052819;28;20176;-65
2021/11/02 16:14:08;;;;;;;0.40;0.40;;;;;;;;;;5052753;28;20229;-65
2021/11/02 16:16:35;;;;;;;0.40;0.40;;;;;;;;;;5053008;28;20398;-65
2021/11/02 16:19:01;;;;;;;0.40;0.40;;;;;;;;;;5052656;28;20582;-65
2021/11/02 16:21:32;;;;;;;0.40;0.40;;;;;;;;;;5052415;28;20211;-65
2021/11/02 16:24:05;;;;;;;0.45;0.45;;;;;;;;;;5052573;28;20626;-65
2021/11/02 16:26:31;;;;;;;0.40;0.40;;;;;;;;;;5052856;28;20179;-65
2021/11/02 16:29:10;;;;;;;0.40;0.40;;;;;;;;;;5052870;28;20174;-65
2021/11/02 16:31:37;;;;;;;0.40;0.40;;;;;;;;;;5052601;28;20179;-65
2021/11/02 16:34:16;;;;;;;0.40;0.40;;;;;;;;;;5052860;28;20260;-65
2021/11/02 16:36:42;;;;;;;0.45;0.45;;;;;;;;;;5052347;28;20168;-65
2021/11/02 16:39:14;;;;;;;0.50;0.50;;;;;;;;;;5052859;28;20742;-65
2021/11/02 16:41:42;;;;;;;0.40;0.40;;;;;;;;;;5052310;28;20438;-66
2021/11/02 16:44:09;;;;;;;0.40;0.40;;;;;;;;;;5052674;28;20180;-65
2021/11/02 16:46:39;;;;;;;0.40;0.40;;;;;;;;;;5052167;28;20195;-66
2021/11/02 16:49:05;;;;;;;0.50;0.50;;;;;;;;;;5052607;28;20539;-66
2021/11/02 16:52:01;;;;;;;0.40;0.40;;;;;;;;;;5054686;28;20184;-65
2021/11/02 16:54:29;;;;;;;0.40;0.40;;;;;;;;;;5036513;28;20488;-65
2021/11/02 16:57:06;;;;;;;0.40;0.40;;;;;;;;;;5055541;28;20595;-65
2021/11/02 16:59:38;;;;;;;0.40;0.40;;;;;;;;;;5052262;28;20566;-65
2021/11/02 17:02:17;;;;;;;0.40;0.40;;;;;;;;;;5052149;28;20667;-65
2021/11/02 17:04:58;;;;;;;0.40;0.40;;;;;;;;;;5052335;28;20721;-65
2021/11/02 17:07:32;;;;;;;0.40;0.40;;;;;;;;;;5052367;28;20180;-66
2021/11/02 17:10:14;;;;;;;0.40;0.40;;;;;;;;;;5051818;28;20207;-65
2021/11/02 17:12:40;;;;;;;0.50;0.50;;;;;;;;;;5052073;28;20261;-65
2021/11/02 17:15:06;;;;;;;0.40;0.40;;;;;;;;;;5052260;28;20663;-65
2021/11/02 17:17:40;;;;;;;0.40;0.40;;;;;;;;;;5052200;28;20202;-65
2021/11/02 17:20:09;;;;;;;0.50;0.50;;;;;;;;;;5051177;28;20579;-65
2021/11/02 17:22:35;;;;;;;0.40;0.40;;;;;;;;;;5052276;28;20176;-65
2021/11/02 17:25:01;;;;;;;0.40;0.40;;;;;;;;;;5052289;28;20650;-65
2021/11/02 17:27:27;;;;;;;0.40;0.40;;;;;;;;;;5052390;28;20484;-65
2021/11/02 17:29:53;;;;;;;0.43;0.43;;;;;;;;;;5052474;28;20223;-65
2021/11/02 17:32:20;;;;;;;0.40;0.40;;;;;;;;;;5051756;28;20680;-65
2021/11/02 17:34:46;;;;;;;0.40;0.40;;;;;;;;;;5052034;28;20552;-65
2021/11/02 17:37:12;;;;;;;0.40;0.40;;;;;;;;;;5034300;28;20176;-65
2021/11/02 17:39:38;;;;;;;0.40;0.40;;;;;;;;;;5052331;28;20621;-66
2021/11/02 17:42:08;;;;;;;0.40;0.40;;;;;;;;;;5051162;28;20200;-65
2021/11/02 17:44:35;;;;;;;0.40;0.40;;;;;;;;;;5051441;28;20187;-65
2021/11/02 17:47:02;;;;;;;0.40;0.40;;;;;;;;;;5052128;28;20171;-65
2021/11/02 17:49:29;;;;;;;0.40;0.40;;;;;;;;;;5036775;28;20208;-65
2021/11/02 17:51:57;;;;;;;0.40;0.40;;;;;;;;;;5029895;28;20257;-64
2021/11/02 17:54:25;;;;;;;0.40;0.40;;;;;;;;;;5030626;28;20180;-64
2021/11/02 17:56:53;;;;;;;0.40;0.40;;;;;;;;;;5030141;28;20830;-64
2021/11/02 17:59:21;;;;;;;0.40;0.40;;;;;;;;;;5029528;28;20181;-64
2021/11/02 18:01:47;;;;;;;0.40;0.40;;;;;;;;;;5016541;28;20180;-64
2021/11/02 18:04:14;;;;;;;0.40;0.40;;;;;;;;;;5011415;28;20227;-64
2021/11/02 18:06:41;;;;;;;0.40;0.40;;;;;;;;;;5011432;28;20172;-65
2021/11/02 18:09:07;;;;;;;0.50;0.50;;;;;;;;;;5010706;28;20200;-64
2021/11/02 18:11:33;;;;;;;0.40;0.40;;;;;;;;;;5011478;28;20165;-64
2021/11/02 18:13:59;;;;;;;0.40;0.40;;;;;;;;;;5018713;28;20259;-65
2021/11/02 18:16:26;;;;;;;0.40;0.40;;;;;;;;;;5030497;28;20184;-64
2021/11/02 18:19:00;;;;;;;0.40;0.40;;;;;;;;;;5029984;28;20585;-65
2021/11/02 18:21:27;;;;;;;0.40;0.40;;;;;;;;;;5029066;28;20234;-65
2021/11/02 18:23:53;;;;;;;0.40;0.40;;;;;;;;;;4994624;28;20207;-65
2021/11/02 18:26:22;;;;;;;0.40;0.40;;;;;;;;;;5029990;28;20283;-65
2021/11/02 18:28:49;;;;;;;0.40;0.40;;;;;;;;;;5028424;28;20586;-64
2021/11/02 18:31:15;;;;;;;0.40;0.40;;;;;;;;;;5028245;28;20283;-64
2021/11/02 18:33:41;;;;;;;0.40;0.40;;;;;;;;;;5030714;28;20619;-64
2021/11/02 18:36:09;;;;;;;0.40;0.40;;;;;;;;;;5030261;28;20185;-65
2021/11/02 18:38:36;;;;;;;0.40;0.40;;;;;;;;;;5029297;28;20168;-65
2021/11/02 18:41:03;;;;;;;0.47;0.47;;;;;;;;;;5030483;28;20197;-65
2021/11/02 18:43:30;;;;;;;0.40;0.40;;;;;;;;;;5030625;28;20203;-66
2021/11/02 18:45:57;;;;;;;0.40;0.40;;;;;;;;;;5030056;28;20183;-64
2021/11/02 18:48:28;;;;;;;0.40;0.40;;;;;;;;;;5030503;28;20220;-64
2021/11/02 18:50:54;;;;;;;0.40;0.40;;;;;;;;;;5027655;28;20201;-64
2021/11/02 18:53:21;;;;;;;0.45;0.45;;;;;;;;;;5030848;28;20207;-65
2021/11/02 18:55:47;;;;;;;0.40;0.40;;;;;;;;;;5029950;28;20238;-65
2021/11/02 18:58:13;;;;;;;0.40;0.40;;;;;;;;;;5030556;28;20259;-66
2021/11/02 19:00:40;;;;;;;0.43;0.43;;;;;;;;;;5011110;28;20244;-65
2021/11/02 19:03:07;;;;;;;0.40;0.40;;;;;;;;;;5030612;28;20188;-65
2021/11/02 19:05:33;;;;;;;0.50;0.50;;;;;;;;;;5030647;28;20176;-65
2021/11/02 19:07:59;;;;;;;0.40;0.40;;;;;;;;;;5034318;28;20180;-65
2021/11/02 19:10:25;;;;;;;0.40;0.40;;;;;;;;;;5032950;28;20196;-65
2021/11/02 19:12:51;;;;;;;0.50;0.50;;;;;;;;;;5033622;28;20572;-65
2021/11/02 19:15:16;;;;;;;0.60;0.60;;;;;;;;;;5033672;28;20469;-65
2021/11/02 19:17:42;;;;;;;0.40;0.40;;;;;;;;;;5033985;28;20184;-65
2021/11/02 19:20:09;;;;;;;0.50;0.50;;;;;;;;;;5029546;28;20470;-65
2021/11/02 19:22:35;;;;;;;0.40;0.40;;;;;;;;;;5032798;28;20184;-65
2021/11/02 19:25:01;;;;;;;0.40;0.40;;;;;;;;;;5033508;28;20555;-65
2021/11/02 19:27:29;;;;;;;0.40;0.40;;;;;;;;;;5033920;28;20411;-65
2021/11/02 19:29:55;;;;;;;0.40;0.40;;;;;;;;;;5033441;28;20192;-65
2021/11/02 19:32:21;;;;;;;0.50;0.50;;;;;;;;;;5033460;28;20555;-65
2021/11/02 19:34:47;;;;;;;0.40;0.40;;;;;;;;;;5015504;28;20527;-65
2021/11/02 19:37:13;;;;;;;0.40;0.40;;;;;;;;;;5033749;28;20438;-65
2021/11/02 19:39:39;;;;;;;0.40;0.40;;;;;;;;;;5015963;28;20197;-65
2021/11/02 19:42:05;;;;;;;0.40;0.40;;;;;;;;;;5016780;28;20660;-66
2021/11/02 19:44:34;;;;;;;0.50;0.50;;;;;;;;;;5016929;28;20176;-65
2021/11/02 19:47:01;;;;;;;0.50;0.50;;;;;;;;;;5035205;28;20437;-65